Time;durP1;ratioP1;P1;durP2;ratioP2;P2;SDS_P1;SDS_P2;PMS_P1;PMS_P2;Temp;Humidity;BMP_temperature;BMP_pressure;BME280_temperature;BME280_humidity;BME280_pressure;Samples;Min_cycle;Max_cycle;Signal;HPM_P1;HPM_P2
2022/12/21 00:01:46;;;;;;;54.17;31.53;;;0.20;99.90;;;;;;5019075;28;20456;-75
2022/12/21 00:04:15;;;;;;;54.97;31.83;;;0.20;99.90;;;;;;5017261;28;20502;-73
2022/12/21 00:06:44;;;;;;;55.63;32.63;;;0.20;99.90;;;;;;5031089;28;20822;-76
2022/12/21 00:09:14;;;;;;;51.00;32.40;;;0.20;99.90;;;;;;5028324;28;20488;-76
2022/12/21 00:11:42;;;;;;;54.23;32.50;;;0.20;99.90;;;;;;5028755;28;20299;-80
2022/12/21 00:14:11;;;;;;;54.07;31.83;;;0.20;99.90;;;;;;5021588;28;20548;-81
2022/12/21 00:16:42;;;;;;;55.10;32.37;;;0.30;99.90;;;;;;5029494;28;21242;-79
2022/12/21 00:19:13;;;;;;;56.00;32.73;;;0.30;99.90;;;;;;5017666;28;20232;-79
2022/12/21 00:21:41;;;;;;;54.17;32.00;;;0.30;99.90;;;;;;5025700;28;20488;-80
2022/12/21 00:24:10;;;;;;;57.27;32.13;;;0.40;99.90;;;;;;5024085;28;20215;-79
2022/12/21 00:26:39;;;;;;;50.40;30.83;;;0.40;99.90;;;;;;5031035;28;20593;-80
2022/12/21 00:29:07;;;;;;;47.67;29.50;;;0.50;99.90;;;;;;5026994;28;20660;-79
2022/12/21 00:31:38;;;;;;;48.97;30.10;;;0.50;99.90;;;;;;5026323;28;20217;-80
2022/12/21 00:34:08;;;;;;;51.13;30.40;;;0.50;99.90;;;;;;5016700;28;20210;-80
2022/12/21 00:36:36;;;;;;;52.30;30.53;;;0.60;99.90;;;;;;5016240;28;20660;-80
2022/12/21 00:39:05;;;;;;;53.07;30.83;;;0.60;99.90;;;;;;5035408;28;20216;-77
2022/12/21 00:41:33;;;;;;;49.33;30.43;;;0.60;99.90;;;;;;5029434;28;20463;-78
2022/12/21 00:44:01;;;;;;;49.07;31.20;;;0.60;99.90;;;;;;5028301;28;20278;-77
2022/12/21 00:46:31;;;;;;;45.53;28.90;;;0.60;99.90;;;;;;5032834;28;20229;-79
2022/12/21 00:49:00;;;;;;;45.60;28.67;;;0.60;99.90;;;;;;5032411;28;20221;-78
2022/12/21 00:51:32;;;;;;;44.77;28.40;;;0.70;99.90;;;;;;5023241;28;20232;-78
2022/12/21 00:54:00;;;;;;;44.10;28.17;;;0.60;99.90;;;;;;5028839;28;20441;-80
2022/12/21 00:56:29;;;;;;;48.60;28.87;;;0.70;99.90;;;;;;5031608;28;20229;-77
2022/12/21 00:58:57;;;;;;;47.37;28.13;;;0.70;99.90;;;;;;5030056;28;20301;-79
2022/12/21 01:01:28;;;;;;;43.53;28.03;;;0.70;99.90;;;;;;5042537;28;20205;-75
2022/12/21 01:03:57;;;;;;;45.37;27.53;;;0.70;99.90;;;;;;5028379;28;20224;-77
2022/12/21 01:06:28;;;;;;;45.90;27.97;;;0.70;99.90;;;;;;5020766;28;20240;-77
2022/12/21 01:08:58;;;;;;;41.17;26.57;;;0.70;99.90;;;;;;5033146;28;20729;-78
2022/12/21 01:11:28;;;;;;;46.13;27.70;;;0.70;99.90;;;;;;5031035;28;20215;-77
2022/12/21 01:13:57;;;;;;;44.50;28.03;;;0.80;99.90;;;;;;5019315;28;20241;-77
2022/12/21 01:16:28;;;;;;;46.70;28.30;;;0.80;99.90;;;;;;5030251;28;20204;-79
2022/12/21 01:18:56;;;;;;;44.67;27.67;;;0.70;99.90;;;;;;5027726;28;20209;-80
2022/12/21 01:21:27;;;;;;;47.30;28.13;;;0.70;99.90;;;;;;5024550;28;20201;-79
2022/12/21 01:23:56;;;;;;;47.93;28.27;;;0.60;99.90;;;;;;5028772;28;20221;-78
2022/12/21 01:26:26;;;;;;;47.93;28.80;;;0.60;99.90;;;;;;5023661;28;20245;-74
2022/12/21 01:28:57;;;;;;;45.37;27.53;;;0.60;99.90;;;;;;5054072;28;20213;-75
2022/12/21 01:31:25;;;;;;;45.87;28.10;;;0.60;99.90;;;;;;5057189;28;20192;-78
2022/12/21 01:33:54;;;;;;;45.67;27.40;;;0.60;99.90;;;;;;5027914;28;20212;-79
2022/12/21 01:36:23;;;;;;;44.00;28.10;;;0.60;99.90;;;;;;5035428;28;20209;-81
2022/12/21 01:38:51;;;;;;;48.70;28.67;;;0.60;99.90;;;;;;5018516;28;20233;-79
2022/12/21 01:41:22;;;;;;;46.37;28.13;;;0.60;99.90;;;;;;5032230;28;20264;-80
2022/12/21 01:43:53;;;;;;;46.20;26.87;;;0.70;99.90;;;;;;5016869;28;20220;-79
2022/12/21 01:46:27;;;;;;;45.10;28.17;;;0.70;99.90;;;;;;5035082;28;20312;-79
2022/12/21 01:49:03;;;;;;;43.83;27.30;;;0.70;99.90;;;;;;5028722;28;20655;-80
2022/12/21 01:51:34;;;;;;;48.17;28.03;;;0.70;99.90;;;;;;5021112;28;20258;-80
2022/12/21 01:54:12;;;;;;;41.90;26.40;;;0.70;99.90;;;;;;5031342;28;20209;-79
2022/12/21 01:56:41;;;;;;;46.53;27.53;;;0.70;99.90;;;;;;5030382;28;20240;-78
2022/12/21 01:59:15;;;;;;;45.53;26.70;;;0.80;99.90;;;;;;5022309;28;20236;-79
2022/12/21 02:01:46;;;;;;;42.60;26.53;;;0.70;99.90;;;;;;5019968;28;20209;-81
2022/12/21 02:04:15;;;;;;;50.40;28.70;;;0.60;99.90;;;;;;5031201;28;20221;-77
2022/12/21 02:06:49;;;;;;;48.37;27.80;;;0.70;99.90;;;;;;5034084;28;20263;-80
2022/12/21 02:09:18;;;;;;;44.67;26.53;;;0.60;99.90;;;;;;5027905;28;20200;-80
2022/12/21 02:11:47;;;;;;;46.63;26.70;;;0.60;99.90;;;;;;5028679;28;20239;-78
2022/12/21 02:14:16;;;;;;;45.63;26.93;;;0.80;99.90;;;;;;5018361;28;20213;-79
2022/12/21 02:16:58;;;;;;;46.07;27.23;;;0.70;99.90;;;;;;5019920;28;20293;-79
2022/12/21 02:20:11;;;;;;;43.67;26.93;;;0.70;99.90;;;;;;5026635;28;20733;-80
2022/12/21 02:23:01;;;;;;;45.03;26.33;;;0.70;99.90;;;;;;5015856;28;20224;-78
2022/12/21 02:26:01;;;;;;;45.90;26.20;;;0.80;99.90;;;;;;5017471;28;20692;-80
2022/12/21 02:29:11;;;;;;;43.90;26.00;;;0.70;99.90;;;;;;5003558;28;20467;-80
2022/12/21 02:31:50;;;;;;;42.60;26.43;;;0.80;99.90;;;;;;5026507;28;20264;-80
2022/12/21 02:34:26;;;;;;;43.73;24.90;;;0.80;99.90;;;;;;5023431;28;20219;-77
2022/12/21 02:37:01;;;;;;;47.70;27.00;;;0.80;99.90;;;;;;5030079;28;20211;-79
2022/12/21 02:39:38;;;;;;;45.60;27.00;;;0.70;99.90;;;;;;5041619;28;20447;-78
2022/12/21 02:44:12;;;;;;;48.53;27.03;;;0.70;99.90;;;;;;5030988;28;20463;-81
2022/12/21 02:45:14;;;;;;;45.33;26.67;;;0.70;99.90;;;;;;5024477;28;20224;-79
2022/12/21 02:47:51;;;;;;;44.43;25.50;;;0.70;99.90;;;;;;5025498;28;20239;-80
2022/12/21 02:50:25;;;;;;;43.80;26.37;;;0.80;99.90;;;;;;5027684;28;20208;-80
2022/12/21 02:52:58;;;;;;;45.47;27.23;;;0.80;99.90;;;;;;5033614;28;20220;-78
2022/12/21 02:55:27;;;;;;;41.63;24.53;;;0.80;99.90;;;;;;5033386;28;20229;-76
2022/12/21 02:58:14;;;;;;;42.57;25.63;;;0.80;99.90;;;;;;5024934;28;20209;-80
2022/12/21 03:00:57;;;;;;;42.67;26.57;;;0.90;99.90;;;;;;5024162;28;20292;-80
2022/12/21 03:03:51;;;;;;;39.77;25.47;;;0.80;99.90;;;;;;5033401;28;20205;-80
2022/12/21 03:06:43;;;;;;;45.43;26.10;;;0.80;99.90;;;;;;5013388;28;20301;-78
2022/12/21 03:09:26;;;;;;;42.57;26.10;;;0.80;99.90;;;;;;5028263;28;20553;-79
2022/12/21 03:12:00;;;;;;;41.03;25.73;;;0.80;99.90;;;;;;5037593;28;20239;-80
2022/12/21 03:14:40;;;;;;;44.70;26.23;;;0.90;99.90;;;;;;5026563;28;20302;-78
2022/12/21 03:17:17;;;;;;;41.37;25.17;;;0.90;99.90;;;;;;5027994;28;20201;-78
2022/12/21 03:19:56;;;;;;;40.83;24.67;;;0.90;99.90;;;;;;5030021;28;20216;-77
2022/12/21 03:22:31;;;;;;;41.10;24.17;;;0.90;99.90;;;;;;5029451;28;20220;-78
2022/12/21 03:25:07;;;;;;;42.13;24.83;;;0.90;99.90;;;;;;5029081;28;20278;-79
2022/12/21 03:27:40;;;;;;;41.20;25.17;;;0.90;99.90;;;;;;5019618;28;20747;-79
2022/12/21 03:30:14;;;;;;;41.27;24.30;;;0.90;99.90;;;;;;5032794;28;20211;-82
2022/12/21 03:32:46;;;;;;;39.53;23.90;;;0.90;99.90;;;;;;5032762;28;20709;-77
2022/12/21 03:35:24;;;;;;;39.30;24.37;;;1.00;99.90;;;;;;5032683;28;20564;-80
2022/12/21 03:37:54;;;;;;;39.77;24.33;;;1.00;99.90;;;;;;5033875;28;20214;-76
2022/12/21 03:40:25;;;;;;;42.20;24.83;;;1.00;99.90;;;;;;5029659;28;20280;-77
2022/12/21 03:42:59;;;;;;;41.77;24.73;;;1.00;99.90;;;;;;5023789;28;20221;-79
2022/12/21 03:45:34;;;;;;;41.90;25.00;;;1.00;99.90;;;;;;5039448;28;20291;-75
2022/12/21 03:48:07;;;;;;;41.60;24.23;;;1.00;99.90;;;;;;5041592;28;20268;-74
2022/12/21 03:50:41;;;;;;;39.77;23.73;;;1.10;99.90;;;;;;5036120;28;20209;-77
2022/12/21 03:53:17;;;;;;;38.97;24.13;;;1.00;99.90;;;;;;5026106;28;20221;-78
2022/12/21 03:55:49;;;;;;;40.27;24.23;;;1.10;99.90;;;;;;5028934;28;20316;-76
2022/12/21 03:58:18;;;;;;;39.60;23.77;;;1.10;99.90;;;;;;5025686;28;20210;-77
2022/12/21 04:00:51;;;;;;;39.20;23.63;;;1.10;99.90;;;;;;5033373;28;20685;-74
2022/12/21 04:03:23;;;;;;;37.83;23.70;;;1.10;99.90;;;;;;5021577;28;20209;-77
2022/12/21 04:05:56;;;;;;;40.90;23.60;;;1.10;99.90;;;;;;5031870;28;20212;-77
2022/12/21 04:08:26;;;;;;;39.93;24.27;;;1.10;99.90;;;;;;5026981;28;20213;-75
2022/12/21 04:10:54;;;;;;;39.77;24.00;;;1.00;99.90;;;;;;5027425;28;20626;-81
2022/12/21 04:13:21;;;;;;;41.47;25.80;;;1.00;99.90;;;;;;5033687;28;20215;-81
2022/12/21 04:16:04;;;;;;;39.53;24.30;;;1.00;99.90;;;;;;5022575;28;20221;-79
2022/12/21 04:21:21;;;;;;;42.90;24.17;;;1.00;99.90;;;;;;5027256;28;20236;-78
2022/12/21 04:29:19;;;;;;;39.63;24.87;;;1.10;99.90;;;;;;5030263;28;20286;-78
2022/12/21 04:31:47;;;;;;;44.77;29.17;;;1.10;99.90;;;;;;5031679;28;20217;-79
2022/12/21 04:34:16;;;;;;;43.13;27.60;;;1.10;99.90;;;;;;5017846;28;20296;-80
2022/12/21 04:39:32;;;;;;;42.70;25.83;;;1.10;99.90;;;;;;5017006;28;20227;-80
2022/12/21 04:42:00;;;;;;;42.60;25.80;;;1.20;99.90;;;;;;5021720;28;20259;-77
2022/12/21 04:44:28;;;;;;;43.90;26.23;;;1.10;99.90;;;;;;5034104;28;20212;-79
2022/12/21 04:46:56;;;;;;;46.43;27.70;;;1.10;99.90;;;;;;5032581;28;20235;-79
2022/12/21 04:49:25;;;;;;;43.27;26.80;;;1.10;99.90;;;;;;5027216;28;20228;-77
2022/12/21 04:51:55;;;;;;;45.20;25.93;;;1.10;99.90;;;;;;5033063;28;20205;-77
2022/12/21 04:54:23;;;;;;;42.23;25.97;;;1.00;99.90;;;;;;5024280;28;20219;-80
2022/12/21 04:56:51;;;;;;;45.83;26.43;;;1.10;99.90;;;;;;5029064;28;20235;-79
2022/12/21 04:59:19;;;;;;;39.90;24.93;;;1.10;99.90;;;;;;5031746;28;20213;-78
2022/12/21 05:01:47;;;;;;;37.80;23.97;;;1.10;99.90;;;;;;5032070;28;20304;-79
2022/12/21 05:04:15;;;;;;;40.10;23.53;;;1.10;99.90;;;;;;5031750;28;20209;-77
2022/12/21 05:06:43;;;;;;;40.37;23.30;;;1.10;99.90;;;;;;5031348;28;20229;-77
2022/12/21 05:09:14;;;;;;;41.57;24.57;;;1.10;99.90;;;;;;5033497;28;20241;-78
2022/12/21 05:11:42;;;;;;;41.07;24.57;;;1.20;99.90;;;;;;5031155;28;20232;-79
2022/12/21 05:14:10;;;;;;;42.93;25.10;;;1.20;99.90;;;;;;5030479;28;20300;-75
2022/12/21 05:16:39;;;;;;;42.03;25.00;;;1.10;99.90;;;;;;5029223;28;20293;-75
2022/12/21 05:19:07;;;;;;;42.60;24.47;;;1.10;99.90;;;;;;5031884;28;20683;-78
2022/12/21 05:21:35;;;;;;;40.60;24.47;;;1.10;99.90;;;;;;5031560;28;20209;-77
2022/12/21 05:24:03;;;;;;;42.70;24.80;;;1.10;99.90;;;;;;5030730;28;20573;-79
2022/12/21 05:26:33;;;;;;;39.03;23.67;;;1.10;99.90;;;;;;5030458;28;20235;-77
2022/12/21 05:29:01;;;;;;;40.17;23.87;;;1.10;99.90;;;;;;5030932;28;20209;-74
2022/12/21 05:31:29;;;;;;;40.87;24.13;;;1.20;99.90;;;;;;5029789;28;20734;-76
2022/12/21 05:33:58;;;;;;;39.47;24.00;;;1.20;99.90;;;;;;5030256;28;20278;-76
2022/12/21 05:36:29;;;;;;;36.70;21.50;;;1.30;99.90;;;;;;5030863;28;20225;-78
2022/12/21 05:38:57;;;;;;;34.13;20.53;;;1.20;99.90;;;;;;5025814;28;20208;-78
2022/12/21 05:41:26;;;;;;;35.70;20.87;;;1.20;99.90;;;;;;5029933;28;20217;-77
2022/12/21 05:43:56;;;;;;;33.90;19.03;;;1.30;99.90;;;;;;5029478;28;20289;-77
2022/12/21 05:46:24;;;;;;;35.33;19.80;;;1.30;99.90;;;;;;5029084;28;20664;-78
2022/12/21 05:48:55;;;;;;;29.77;19.33;;;1.30;99.90;;;;;;5031194;28;20240;-74
2022/12/21 05:51:23;;;;;;;32.83;19.20;;;1.30;99.90;;;;;;5027888;28;20213;-74
2022/12/21 05:53:52;;;;;;;32.97;19.63;;;1.30;99.90;;;;;;5026675;28;20570;-74
2022/12/21 05:56:21;;;;;;;31.47;18.40;;;1.30;99.90;;;;;;5028504;28;20228;-75
2022/12/21 05:58:49;;;;;;;26.37;17.77;;;1.30;99.90;;;;;;5027106;28;20205;-73
2022/12/21 06:01:19;;;;;;;28.20;17.23;;;1.40;99.90;;;;;;5018550;28;20233;-76
2022/12/21 06:03:47;;;;;;;27.90;16.73;;;1.40;99.90;;;;;;5032998;28;20231;-79
2022/12/21 06:06:19;;;;;;;27.97;16.00;;;1.40;99.90;;;;;;5026437;28;20208;-78
2022/12/21 06:08:47;;;;;;;25.07;14.63;;;1.40;99.90;;;;;;5028440;28;20331;-80
2022/12/21 06:11:17;;;;;;;27.37;15.27;;;1.40;99.90;;;;;;5033099;28;20225;-79
2022/12/21 06:13:45;;;;;;;26.37;15.07;;;1.40;99.90;;;;;;5027787;28;20301;-80
2022/12/21 06:16:16;;;;;;;23.90;15.23;;;1.50;99.90;;;;;;5032625;28;20209;-78
2022/12/21 06:18:46;;;;;;;27.57;15.07;;;1.50;99.90;;;;;;5027469;28;20216;-76
2022/12/21 06:21:16;;;;;;;26.50;14.90;;;1.50;99.90;;;;;;5023575;28;20232;-80
2022/12/21 06:23:45;;;;;;;24.40;14.27;;;1.50;99.90;;;;;;5016562;28;20276;-78
2022/12/21 06:26:15;;;;;;;20.97;13.77;;;1.50;99.90;;;;;;5029666;28;20209;-79
2022/12/21 06:28:47;;;;;;;21.37;13.57;;;1.50;99.90;;;;;;5022608;28;20228;-77
2022/12/21 06:31:16;;;;;;;26.33;15.40;;;1.50;99.90;;;;;;5017343;28;20300;-75
2022/12/21 06:33:46;;;;;;;27.13;15.93;;;1.50;99.90;;;;;;5020265;28;20293;-79
2022/12/21 06:36:15;;;;;;;24.70;15.43;;;1.60;99.90;;;;;;5014449;28;20226;-78
2022/12/21 06:38:43;;;;;;;25.57;15.30;;;1.50;99.90;;;;;;5026920;28;20296;-79
2022/12/21 06:41:13;;;;;;;19.63;13.27;;;1.60;99.90;;;;;;5033348;28;20244;-79
2022/12/21 06:43:43;;;;;;;21.13;13.63;;;1.60;99.90;;;;;;5023796;28;20204;-80
2022/12/21 06:46:13;;;;;;;25.30;15.07;;;1.60;99.90;;;;;;5024443;28;20205;-77
2022/12/21 06:48:42;;;;;;;23.70;13.83;;;1.70;99.90;;;;;;5030032;28;20659;-77
2022/12/21 06:51:14;;;;;;;23.80;15.60;;;1.70;99.90;;;;;;5018979;28;20690;-79
2022/12/21 06:53:47;;;;;;;24.17;15.17;;;1.80;99.90;;;;;;5026841;28;20204;-76
2022/12/21 06:56:18;;;;;;;22.77;14.83;;;1.70;99.90;;;;;;5028810;28;20259;-74
2022/12/21 06:58:49;;;;;;;23.23;15.90;;;1.80;99.90;;;;;;5033752;28;20225;-78
2022/12/21 07:01:19;;;;;;;22.90;14.50;;;1.80;99.90;;;;;;5034846;28;20228;-79
2022/12/21 07:03:48;;;;;;;18.60;12.50;;;1.90;99.90;;;;;;5039965;28;20234;-74
2022/12/21 07:06:20;;;;;;;18.30;11.70;;;2.00;99.90;;;;;;5024999;28;20425;-78
2022/12/21 07:08:48;;;;;;;19.20;12.47;;;2.10;99.90;;;;;;5023590;28;20316;-80
2022/12/21 07:11:18;;;;;;;19.37;10.57;;;2.20;99.90;;;;;;5027543;28;20217;-79
2022/12/21 07:13:48;;;;;;;15.33;9.87;;;2.10;99.90;;;;;;5022791;28;20308;-77
2022/12/21 07:16:16;;;;;;;19.27;10.57;;;2.20;99.90;;;;;;5025026;28;20201;-79
2022/12/21 07:18:48;;;;;;;13.87;10.27;;;2.30;99.90;;;;;;5014943;28;20292;-79
2022/12/21 07:21:20;;;;;;;16.93;10.10;;;2.40;99.90;;;;;;5029226;28;20267;-78
2022/12/21 07:23:49;;;;;;;15.87;9.10;;;2.40;99.90;;;;;;5032291;28;20209;-77
2022/12/21 07:26:20;;;;;;;15.53;9.30;;;2.50;99.90;;;;;;5030178;28;20209;-78
2022/12/21 07:28:49;;;;;;;12.70;8.30;;;2.50;99.90;;;;;;5016695;28;20280;-78
2022/12/21 07:31:19;;;;;;;13.90;8.93;;;2.50;99.90;;;;;;5022100;28;20303;-75
2022/12/21 07:33:47;;;;;;;13.80;9.03;;;2.60;99.90;;;;;;5027601;28;20216;-80
2022/12/21 07:36:19;;;;;;;14.40;8.87;;;2.70;99.90;;;;;;5020924;28;20297;-79
2022/12/21 07:38:47;;;;;;;14.73;9.73;;;2.70;99.90;;;;;;5022838;28;20213;-80
2022/12/21 07:41:17;;;;;;;11.80;7.07;;;4.60;99.90;;;;;;5015072;28;20206;-79
2022/12/21 07:43:46;;;;;;;10.43;6.53;;;5.10;99.90;;;;;;5030082;28;20215;-78
2022/12/21 07:46:14;;;;;;;10.63;6.03;;;4.40;99.90;;;;;;5025767;28;20217;-78
2022/12/21 07:48:42;;;;;;;9.87;5.97;;;4.00;99.90;;;;;;5020132;28;20575;-81
2022/12/21 07:51:11;;;;;;;10.97;6.00;;;3.80;99.90;;;;;;5022907;28;20211;-79
2022/12/21 07:53:40;;;;;;;9.20;6.60;;;3.70;99.90;;;;;;5031051;28;20295;-76
2022/12/21 07:56:13;;;;;;;11.10;6.73;;;3.60;99.90;;;;;;5023033;28;20231;-78
2022/12/21 07:58:41;;;;;;;11.90;6.57;;;3.50;99.90;;;;;;5025928;28;20667;-75
2022/12/21 08:01:10;;;;;;;10.20;6.47;;;3.40;99.90;;;;;;5020199;28;20241;-76
2022/12/21 08:03:41;;;;;;;10.23;6.67;;;3.40;99.90;;;;;;5023636;28;20209;-72
2022/12/21 08:06:10;;;;;;;10.20;6.70;;;3.30;99.90;;;;;;5021787;28;20204;-74
2022/12/21 08:08:40;;;;;;;9.97;6.53;;;3.30;99.90;;;;;;5028653;28;20225;-74
2022/12/21 08:11:12;;;;;;;9.10;6.67;;;3.40;99.90;;;;;;5030797;28;20216;-75
2022/12/21 08:13:42;;;;;;;12.10;7.33;;;3.40;99.90;;;;;;5028537;28;20216;-77
2022/12/21 08:16:12;;;;;;;13.83;7.53;;;3.40;99.90;;;;;;5028414;28;20221;-76
2022/12/21 08:18:40;;;;;;;12.10;7.33;;;3.40;99.90;;;;;;5029580;28;20211;-78
2022/12/21 08:21:08;;;;;;;13.13;7.70;;;3.40;99.90;;;;;;5026370;28;20687;-74
2022/12/21 08:23:37;;;;;;;14.57;7.63;;;3.50;99.90;;;;;;5022313;28;20251;-76
2022/12/21 08:26:09;;;;;;;12.83;7.60;;;3.40;99.90;;;;;;5019223;28;20293;-78
2022/12/21 08:28:37;;;;;;;16.73;7.80;;;3.50;99.90;;;;;;5011524;28;20766;-77
2022/12/21 08:31:07;;;;;;;10.43;7.23;;;3.50;99.90;;;;;;5030090;28;20213;-79
2022/12/21 08:33:35;;;;;;;10.80;7.20;;;3.50;99.90;;;;;;5029794;28;20208;-74
2022/12/21 08:36:04;;;;;;;19.63;11.30;;;3.60;99.90;;;;;;5023426;28;20305;-77
2022/12/21 08:38:33;;;;;;;10.17;7.40;;;3.60;99.90;;;;;;5016246;28;20208;-74
2022/12/21 08:41:24;;;;;;;9.63;6.77;;;3.70;99.90;;;;;;5027065;28;20223;-77
2022/12/21 08:43:52;;;;;;;11.27;7.00;;;3.70;99.90;;;;;;5028872;28;20236;-79
2022/12/21 08:46:20;;;;;;;9.97;6.90;;;3.70;99.90;;;;;;5030009;28;20216;-78
2022/12/21 08:48:50;;;;;;;9.47;7.20;;;3.80;99.90;;;;;;5015619;28;20303;-75
2022/12/21 08:51:19;;;;;;;10.80;7.17;;;3.80;99.90;;;;;;5016575;28;20730;-74
2022/12/21 08:53:48;;;;;;;11.37;7.20;;;3.90;99.90;;;;;;5036592;28;20209;-75
2022/12/21 08:56:19;;;;;;;10.50;7.00;;;3.90;99.90;;;;;;5030554;28;20234;-78
2022/12/21 08:58:49;;;;;;;10.73;7.23;;;4.00;99.90;;;;;;5034634;28;20224;-78
2022/12/21 09:01:21;;;;;;;9.33;6.87;;;4.00;99.90;;;;;;5035997;28;20233;-74
2022/12/21 09:03:49;;;;;;;7.70;6.40;;;4.10;99.90;;;;;;5032322;28;20722;-78
2022/12/21 09:06:18;;;;;;;11.13;7.07;;;4.10;99.90;;;;;;5030934;28;20213;-78
2022/12/21 09:08:46;;;;;;;12.03;7.10;;;4.10;99.90;;;;;;5025118;28;20292;-78
2022/12/21 09:11:17;;;;;;;10.80;6.60;;;4.30;99.90;;;;;;5029763;28;20248;-78
2022/12/21 09:13:45;;;;;;;12.17;6.80;;;4.20;99.90;;;;;;5032192;28;20215;-76
2022/12/21 09:16:17;;;;;;;8.87;5.83;;;4.30;99.90;;;;;;5031181;28;20212;-81
2022/12/21 09:18:45;;;;;;;10.43;7.07;;;4.30;99.90;;;;;;5030394;28;20296;-80
2022/12/21 09:21:15;;;;;;;11.33;6.60;;;4.40;99.90;;;;;;5030049;28;20284;-80
2022/12/21 09:23:44;;;;;;;12.13;7.20;;;4.40;99.90;;;;;;5030950;28;20205;-76
2022/12/21 09:26:15;;;;;;;11.13;6.67;;;4.40;99.90;;;;;;5028233;28;20661;-78
2022/12/21 09:28:43;;;;;;;12.03;6.23;;;4.50;99.90;;;;;;5029331;28;20233;-80
2022/12/21 09:31:13;;;;;;;11.93;6.50;;;4.50;99.90;;;;;;5031986;28;20209;-80
2022/12/21 09:33:50;;;;;;;10.33;6.07;;;4.50;99.90;;;;;;5024549;28;20676;-80
2022/12/21 09:36:20;;;;;;;10.13;6.27;;;4.50;99.90;;;;;;5027901;28;20279;-81
2022/12/21 09:38:48;;;;;;;8.30;5.77;;;4.50;99.90;;;;;;5030931;28;20263;-76
2022/12/21 09:41:43;;;;;;;8.40;5.80;;;4.50;99.90;;;;;;5031019;28;20221;-79
2022/12/21 09:44:31;;;;;;;8.93;6.33;;;4.60;99.90;;;;;;5024426;28;20202;-78
2022/12/21 09:47:03;;;;;;;10.13;5.80;;;4.70;99.90;;;;;;5026325;28;20209;-81
2022/12/21 09:49:42;;;;;;;9.63;5.60;;;4.70;99.90;;;;;;5026672;28;20300;-81
2022/12/21 09:52:16;;;;;;;11.67;6.27;;;4.70;99.90;;;;;;5026064;28;20641;-80
2022/12/21 09:54:53;;;;;;;8.43;5.93;;;4.80;99.90;;;;;;5025253;28;20227;-80
2022/12/21 09:57:26;;;;;;;9.03;5.57;;;4.90;99.90;;;;;;5026791;28;20202;-77
2022/12/21 09:59:55;;;;;;;9.07;5.37;;;4.90;99.90;;;;;;5026786;28;20229;-81
2022/12/21 10:02:41;;;;;;;8.80;5.60;;;5.00;99.90;;;;;;5032129;28;20298;-77
2022/12/21 10:05:22;;;;;;;10.50;5.57;;;5.20;99.90;;;;;;5021224;28;20204;-77
2022/12/21 10:08:24;;;;;;;8.63;5.20;;;5.40;99.90;;;;;;5034164;28;20296;-78
2022/12/21 10:11:00;;;;;;;7.77;5.17;;;5.50;99.90;;;;;;5025397;28;20212;-79
2022/12/21 10:13:40;;;;;;;7.33;5.43;;;5.60;99.90;;;;;;5020363;28;20525;-80
2022/12/21 10:16:20;;;;;;;9.07;5.20;;;5.60;99.90;;;;;;5024300;28;20197;-79
2022/12/21 10:19:13;;;;;;;7.17;5.13;;;5.60;99.90;;;;;;5027742;28;20761;-79
2022/12/21 10:21:50;;;;;;;8.33;5.70;;;5.60;99.90;;;;;;5029535;28;20269;-78
2022/12/21 10:24:23;;;;;;;8.57;5.03;;;5.60;99.90;;;;;;5025931;28;20207;-80
2022/12/21 10:26:58;;;;;;;7.97;5.43;;;5.70;99.90;;;;;;5024512;28;20201;-79
2022/12/21 10:29:32;;;;;;;8.57;5.30;;;5.70;99.90;;;;;;5027638;28;20212;-79
2022/12/21 10:32:01;;;;;;;8.50;5.17;;;5.70;99.90;;;;;;5029182;28;20635;-76
2022/12/21 10:34:34;;;;;;;7.60;5.00;;;5.70;99.90;;;;;;5022848;28;20365;-78
2022/12/21 10:37:17;;;;;;;7.50;5.20;;;5.90;99.90;;;;;;5033496;28;20629;-77
2022/12/21 10:39:46;;;;;;;9.30;4.70;;;5.90;99.90;;;;;;5027191;28;20197;-79
2022/12/21 10:42:22;;;;;;;7.57;4.60;;;6.00;99.90;;;;;;5031070;28;20563;-79
2022/12/21 10:44:52;;;;;;;12.10;5.03;;;6.20;99.90;;;;;;5026633;28;20200;-79
2022/12/21 10:47:24;;;;;;;8.87;5.10;;;6.40;99.90;;;;;;5021792;28;20220;-80
2022/12/21 10:49:58;;;;;;;7.33;4.47;;;6.50;99.90;;;;;;5021013;28;20233;-79
2022/12/21 10:52:37;;;;;;;7.87;4.73;;;6.60;99.90;;;;;;5030868;28;20221;-75
2022/12/21 10:55:24;;;;;;;9.40;5.10;;;6.70;99.90;;;;;;5028698;28;20208;-78
2022/12/21 10:57:55;;;;;;;6.40;4.60;;;6.90;99.90;;;;;;5029330;28;20200;-78
2022/12/21 11:00:31;;;;;;;6.97;5.37;;;7.00;99.90;;;;;;5029355;28;20235;-78
2022/12/21 11:03:04;;;;;;;7.53;4.60;;;6.90;99.90;;;;;;5020717;28;20220;-74
2022/12/21 11:05:34;;;;;;;7.97;4.70;;;6.90;99.90;;;;;;5024028;28;20217;-77
2022/12/21 11:08:29;;;;;;;7.57;4.57;;;6.90;99.90;;;;;;5030447;28;20236;-77
2022/12/21 11:11:00;;;;;;;8.97;5.03;;;7.00;99.90;;;;;;5014735;28;20720;-73
2022/12/21 11:13:31;;;;;;;6.97;4.77;;;6.90;99.90;;;;;;5021492;28;20225;-76
2022/12/21 11:16:04;;;;;;;7.13;4.60;;;6.80;99.90;;;;;;5029510;28;20292;-80
2022/12/21 11:18:40;;;;;;;7.83;4.40;;;6.90;99.90;;;;;;5031445;28;20201;-76
2022/12/21 11:21:38;;;;;;;5.73;4.40;;;6.80;99.90;;;;;;5022167;28;20469;-78
2022/12/21 11:24:13;;;;;;;6.43;4.30;;;6.70;99.90;;;;;;5018842;28;20731;-77
2022/12/21 11:26:44;;;;;;;6.23;4.50;;;6.80;99.90;;;;;;5019734;28;20252;-78
2022/12/21 11:29:22;;;;;;;7.13;5.13;;;6.70;99.90;;;;;;5023882;28;20238;-78
2022/12/21 11:31:52;;;;;;;7.73;5.73;;;6.70;99.90;;;;;;5027260;28;20228;-77
2022/12/21 11:34:34;;;;;;;9.30;5.30;;;6.60;99.90;;;;;;5026018;28;20202;-75
2022/12/21 11:37:05;;;;;;;8.80;5.07;;;6.70;99.90;;;;;;5026985;28;20212;-76
2022/12/21 11:39:44;;;;;;;7.87;4.47;;;6.70;99.90;;;;;;5023488;28;20204;-75
2022/12/21 11:42:20;;;;;;;7.57;4.77;;;6.80;99.90;;;;;;5026190;28;20217;-76
2022/12/21 11:44:51;;;;;;;7.33;5.10;;;6.90;99.90;;;;;;5025101;28;20624;-75
2022/12/21 11:47:34;;;;;;;6.30;4.90;;;6.90;99.90;;;;;;5026040;28;20243;-78
2022/12/21 11:50:29;;;;;;;8.10;4.90;;;7.00;99.90;;;;;;5028243;28;20220;-75
2022/12/21 11:53:13;;;;;;;6.17;4.33;;;7.00;99.90;;;;;;5029054;28;20706;-74
2022/12/21 11:55:58;;;;;;;14.10;10.00;;;7.10;99.90;;;;;;5025703;28;20659;-73
2022/12/21 11:58:40;;;;;;;7.83;5.50;;;7.30;99.90;;;;;;5027428;28;20663;-76
2022/12/21 12:01:18;;;;;;;8.00;4.70;;;7.20;99.90;;;;;;5027688;28;20331;-76
2022/12/21 12:04:04;;;;;;;6.97;4.60;;;7.10;99.90;;;;;;5025362;28;20201;-75
2022/12/21 12:06:54;;;;;;;5.93;4.80;;;7.00;99.90;;;;;;5023544;28;20280;-78
2022/12/21 12:09:49;;;;;;;8.27;5.17;;;6.90;99.90;;;;;;5019355;28;20216;-78
2022/12/21 12:12:27;;;;;;;9.00;5.70;;;6.80;99.90;;;;;;5006835;28;20228;-76
2022/12/21 12:15:22;;;;;;;6.87;5.00;;;6.80;99.90;;;;;;5033550;28;20205;-78
2022/12/21 12:18:05;;;;;;;11.77;6.60;;;6.80;99.90;;;;;;5031275;28;20635;-77
2022/12/21 12:21:05;;;;;;;6.63;5.07;;;6.60;99.90;;;;;;5028607;28;20204;-77
2022/12/21 12:23:43;;;;;;;8.67;6.07;;;6.60;99.90;;;;;;5009403;28;20209;-79
2022/12/21 12:26:19;;;;;;;8.47;5.80;;;6.60;99.90;;;;;;5026354;28;20208;-77
2022/12/21 12:29:18;;;;;;;7.17;5.23;;;6.40;99.90;;;;;;5028720;28;20209;-74
2022/12/21 12:32:00;;;;;;;7.53;5.43;;;6.30;99.90;;;;;;5024431;28;20303;-81
2022/12/21 12:34:56;;;;;;;7.53;5.47;;;6.30;99.90;;;;;;5028406;28;20240;-77
2022/12/21 12:37:37;;;;;;;8.07;5.57;;;6.30;99.90;;;;;;5032310;28;20216;-76
2022/12/21 12:40:15;;;;;;;8.10;5.50;;;6.30;99.90;;;;;;5031791;28;20210;-80
2022/12/21 12:42:54;;;;;;;6.73;5.10;;;6.30;99.90;;;;;;5027818;28;20202;-77
2022/12/21 12:45:33;;;;;;;8.37;5.20;;;6.20;99.90;;;;;;5035040;28;20212;-80
2022/12/21 12:48:16;;;;;;;8.27;4.83;;;6.20;99.90;;;;;;5035250;28;20315;-77
2022/12/21 12:50:52;;;;;;;6.20;4.70;;;6.20;99.90;;;;;;5030983;28;20201;-81
2022/12/21 12:53:34;;;;;;;7.60;6.03;;;6.20;99.90;;;;;;5025075;28;20292;-78
2022/12/21 12:56:13;;;;;;;8.90;4.77;;;6.30;99.90;;;;;;5023689;28;20272;-74
2022/12/21 12:58:49;;;;;;;6.73;5.17;;;6.40;99.90;;;;;;5026135;28;20320;-75
2022/12/21 13:01:25;;;;;;;7.90;5.20;;;6.30;99.90;;;;;;5032433;28;20319;-76
2022/12/21 13:04:38;;;;;;;9.83;5.57;;;6.40;99.90;;;;;;5027343;28;20695;-79
2022/12/21 13:07:15;;;;;;;6.90;4.47;;;6.40;99.90;;;;;;4952844;29;20204;-77
2022/12/21 13:09:59;;;;;;;6.33;4.73;;;6.40;99.90;;;;;;4954157;29;20818;-77
2022/12/21 13:12:35;;;;;;;9.23;5.83;;;6.50;99.90;;;;;;4999658;28;20228;-74
2022/12/21 13:15:09;;;;;;;10.70;7.33;;;6.50;99.90;;;;;;5030231;28;20229;-77
2022/12/21 13:17:44;;;;;;;6.97;5.60;;;6.50;99.90;;;;;;5030648;28;20209;-76
2022/12/21 13:20:18;;;;;;;8.33;5.83;;;6.60;99.90;;;;;;5042923;28;20212;-77
2022/12/21 13:22:53;;;;;;;7.83;5.30;;;6.50;99.90;;;;;;5030688;28;20348;-76
2022/12/21 13:25:25;;;;;;;8.30;5.50;;;6.60;99.90;;;;;;5037945;28;20211;-75
2022/12/21 13:27:59;;;;;;;16.03;13.00;;;6.60;99.90;;;;;;5033116;28;20205;-75